createdAt,value
2022-12-17T00:00:24.463Z,10.90
2022-12-17T00:01:20.507Z,11.90
2022-12-17T00:02:19.548Z,11.20
2022-12-17T00:03:19.720Z,13.50
2022-12-17T00:04:19.500Z,15.00
2022-12-17T00:05:19.448Z,14.00
2022-12-17T00:06:19.443Z,14.30
2022-12-17T00:07:19.478Z,13.40
2022-12-17T00:08:19.419Z,13.80
2022-12-17T00:09:19.430Z,12.60
2022-12-17T00:10:20.238Z,12.10
2022-12-17T00:11:19.380Z,16.50
2022-12-17T00:12:20.231Z,13.00
2022-12-17T00:13:19.381Z,12.00
2022-12-17T00:14:19.379Z,11.80
2022-12-17T00:15:19.339Z,10.70
2022-12-17T00:16:19.429Z,13.20
2022-12-17T00:17:21.181Z,12.70
2022-12-17T00:18:19.363Z,13.40
2022-12-17T00:19:19.291Z,12.70
2022-12-17T00:20:19.271Z,12.60
2022-12-17T00:21:19.281Z,13.10
2022-12-17T00:22:19.474Z,11.30
2022-12-17T00:23:19.231Z,12.80
2022-12-17T00:24:19.327Z,15.40
2022-12-17T00:25:19.223Z,16.60
2022-12-17T00:26:19.205Z,10.70
2022-12-17T00:27:19.195Z,11.60
2022-12-17T00:28:19.192Z,12.70
2022-12-17T00:29:19.220Z,11.40
2022-12-17T00:30:19.164Z,13.60
2022-12-17T00:31:19.220Z,14.40
2022-12-17T00:32:19.149Z,11.20
2022-12-17T00:33:19.152Z,16.40
2022-12-17T00:34:19.120Z,10.30
2022-12-17T00:35:19.120Z,11.70
2022-12-17T00:36:19.111Z,10.30
2022-12-17T00:37:19.129Z,13.00
2022-12-17T00:38:19.994Z,9.40
2022-12-17T00:39:19.093Z,11.00
2022-12-17T00:40:19.105Z,9.50
2022-12-17T00:41:19.050Z,11.50
2022-12-17T00:42:19.052Z,10.00
2022-12-17T00:43:19.079Z,13.90
2022-12-17T00:44:19.071Z,11.30
2022-12-17T00:45:19.089Z,13.50
2022-12-17T00:46:19.134Z,10.20
2022-12-17T00:47:19.155Z,10.50
2022-12-17T00:48:18.982Z,9.70
2022-12-17T00:49:18.954Z,10.40
2022-12-17T00:50:18.952Z,13.80
2022-12-17T00:51:18.930Z,11.10
2022-12-17T00:52:18.950Z,10.20
2022-12-17T00:53:18.919Z,16.10
2022-12-17T00:54:18.910Z,10.80
2022-12-17T00:55:18.892Z,13.40
2022-12-17T00:56:18.879Z,14.80
2022-12-17T00:57:18.880Z,12.00
2022-12-17T00:58:18.880Z,11.00
2022-12-17T00:59:18.872Z,11.30
2022-12-17T01:00:18.831Z,9.80
2022-12-17T01:01:18.935Z,15.50
2022-12-17T01:02:18.950Z,11.90
2022-12-17T01:03:18.852Z,9.70
2022-12-17T01:04:18.820Z,10.80
2022-12-17T01:05:18.795Z,12.00
2022-12-17T01:06:18.760Z,9.10
2022-12-17T01:07:18.760Z,13.80
2022-12-17T01:08:18.763Z,10.00
2022-12-17T01:09:18.789Z,13.20
2022-12-17T01:10:18.750Z,8.80
2022-12-17T01:11:18.719Z,10.50
2022-12-17T01:12:18.742Z,11.10
2022-12-17T01:13:18.701Z,13.70
2022-12-17T01:14:18.688Z,9.70
2022-12-17T01:15:18.728Z,11.50
2022-12-17T01:16:18.774Z,10.40
2022-12-17T01:17:18.704Z,15.50
2022-12-17T01:18:18.642Z,12.00
2022-12-17T01:19:18.632Z,10.80
2022-12-17T01:20:18.641Z,9.20
2022-12-17T01:21:18.652Z,10.60
2022-12-17T01:22:18.661Z,11.80
2022-12-17T01:23:18.590Z,12.30
2022-12-17T01:24:18.580Z,10.20
2022-12-17T01:25:18.573Z,11.60
2022-12-17T01:26:18.641Z,9.80
2022-12-17T01:27:18.642Z,12.40
2022-12-17T01:28:18.587Z,13.20
2022-12-17T01:29:18.573Z,13.00
2022-12-17T01:30:18.701Z,14.00
2022-12-17T01:31:18.570Z,12.10
2022-12-17T01:32:18.508Z,13.90
2022-12-17T01:33:18.471Z,12.60
2022-12-17T01:34:18.490Z,11.40
2022-12-17T01:35:18.454Z,13.30
2022-12-17T01:36:18.454Z,17.20
2022-12-17T01:37:18.440Z,10.60
2022-12-17T01:38:18.457Z,10.50
2022-12-17T01:39:18.415Z,13.80
2022-12-17T01:40:18.427Z,13.60
2022-12-17T01:41:18.440Z,10.40
2022-12-17T01:42:18.406Z,9.00
2022-12-17T01:43:18.390Z,11.30
2022-12-17T01:44:18.352Z,12.30
2022-12-17T01:45:18.349Z,11.80
2022-12-17T01:46:18.427Z,13.20
2022-12-17T01:47:18.322Z,10.60
2022-12-17T01:48:18.310Z,12.30
2022-12-17T01:49:18.341Z,13.60
2022-12-17T01:50:18.321Z,12.70
2022-12-17T01:51:18.280Z,11.90
2022-12-17T01:52:18.268Z,11.50
2022-12-17T01:53:18.251Z,10.10
2022-12-17T01:54:18.241Z,15.60
2022-12-17T01:55:18.281Z,16.60
2022-12-17T01:56:18.240Z,16.10
2022-12-17T01:57:18.226Z,16.00
2022-12-17T01:58:18.221Z,17.20
2022-12-17T01:59:18.202Z,16.00
2022-12-17T02:00:18.191Z,14.00
2022-12-17T02:01:18.313Z,12.10
2022-12-17T02:02:18.366Z,13.70
2022-12-17T02:03:18.206Z,13.70
2022-12-17T02:04:18.135Z,14.40
2022-12-17T02:05:18.121Z,19.00
2022-12-17T02:06:18.197Z,10.90
2022-12-17T02:07:18.137Z,14.50
2022-12-17T02:08:18.092Z,14.70
2022-12-17T02:09:18.099Z,9.70
2022-12-17T02:10:18.091Z,13.80
2022-12-17T02:11:18.051Z,11.80
2022-12-17T02:12:18.081Z,11.00
2022-12-17T02:13:18.093Z,14.90
2022-12-17T02:14:18.033Z,8.10
2022-12-17T02:15:18.021Z,12.00
2022-12-17T02:16:18.063Z,10.20
2022-12-17T02:17:17.992Z,8.00
2022-12-17T02:18:18.081Z,9.10
2022-12-17T02:19:17.981Z,9.40
2022-12-17T02:20:17.963Z,8.40
2022-12-17T02:21:17.963Z,10.00
2022-12-17T02:22:17.942Z,11.60
2022-12-17T02:23:17.933Z,13.10
2022-12-17T02:24:17.931Z,11.40
2022-12-17T02:25:17.926Z,13.90
2022-12-17T02:26:17.916Z,9.40
2022-12-17T02:27:17.883Z,9.90
2022-12-17T02:28:17.910Z,10.00
2022-12-17T02:29:17.914Z,11.20
2022-12-17T02:30:17.900Z,8.60
2022-12-17T02:31:17.877Z,9.90
2022-12-17T02:32:17.831Z,10.80
2022-12-17T02:33:17.867Z,12.30
2022-12-17T02:34:17.811Z,11.80
2022-12-17T02:35:17.835Z,12.20
2022-12-17T02:36:17.809Z,8.90
2022-12-17T02:37:17.803Z,12.00
2022-12-17T02:38:17.791Z,9.80
2022-12-17T02:39:17.764Z,10.60
2022-12-17T02:40:17.791Z,13.80
2022-12-17T02:41:17.731Z,11.80
2022-12-17T02:42:17.760Z,13.30
2022-12-17T02:43:17.723Z,13.50
2022-12-17T02:44:17.730Z,8.90
2022-12-17T02:45:17.702Z,9.50
2022-12-17T02:46:17.761Z,8.50
2022-12-17T02:47:17.714Z,8.00
2022-12-17T02:48:17.682Z,9.00
2022-12-17T02:49:17.641Z,16.90
2022-12-17T02:50:17.654Z,7.90
2022-12-17T02:51:17.658Z,10.60
2022-12-17T02:52:18.633Z,9.70
2022-12-17T02:53:17.642Z,8.40
2022-12-17T02:54:17.601Z,12.30
2022-12-17T02:55:17.593Z,8.30
2022-12-17T02:56:17.573Z,12.50
2022-12-17T02:57:17.582Z,12.50
2022-12-17T02:58:17.585Z,9.70
2022-12-17T02:59:17.588Z,9.80
2022-12-17T03:00:17.541Z,9.60
2022-12-17T03:01:17.698Z,10.00
2022-12-17T03:02:17.567Z,10.60
2022-12-17T03:03:17.560Z,11.40
2022-12-17T03:04:17.493Z,7.20
2022-12-17T03:05:43.415Z,8.80
2022-12-17T03:06:18.479Z,9.10
2022-12-17T03:07:17.807Z,7.90
2022-12-17T03:08:17.478Z,8.40
2022-12-17T03:09:17.473Z,11.20
2022-12-17T03:10:17.437Z,9.80
2022-12-17T03:11:17.407Z,8.50
2022-12-17T03:12:17.409Z,12.00
2022-12-17T03:13:17.383Z,10.50
2022-12-17T03:14:17.372Z,10.10
2022-12-17T03:15:17.393Z,10.10
2022-12-17T03:16:17.780Z,10.80
2022-12-17T03:17:17.367Z,9.30
2022-12-17T03:18:17.332Z,8.40
2022-12-17T03:19:17.335Z,11.40
2022-12-17T03:20:17.369Z,7.90
2022-12-17T03:21:17.302Z,9.50
2022-12-17T03:22:17.283Z,11.30
2022-12-17T03:23:17.358Z,10.10
2022-12-17T03:24:17.265Z,11.10
2022-12-17T03:25:17.252Z,9.40
2022-12-17T03:26:17.265Z,9.40
2022-12-17T03:27:17.324Z,7.50
2022-12-17T03:28:17.212Z,9.60
2022-12-17T03:29:17.214Z,9.40
2022-12-17T03:30:17.204Z,9.00
2022-12-17T03:31:17.307Z,9.90
2022-12-17T03:32:17.172Z,10.90
2022-12-17T03:33:17.193Z,9.60
2022-12-17T03:34:17.152Z,11.70
2022-12-17T03:35:17.212Z,9.70
2022-12-17T03:36:17.220Z,13.50
2022-12-17T03:37:17.233Z,16.30
2022-12-17T03:38:17.326Z,9.10
2022-12-17T03:39:17.142Z,9.20
2022-12-17T03:40:17.093Z,10.70
2022-12-17T03:41:17.083Z,7.10
2022-12-17T03:42:17.102Z,8.80
2022-12-17T03:43:17.082Z,8.50
2022-12-17T03:44:17.059Z,9.40
2022-12-17T03:45:17.073Z,10.00
2022-12-17T03:46:17.101Z,9.80
2022-12-17T03:47:17.022Z,12.00
2022-12-17T03:48:17.033Z,7.40
2022-12-17T03:49:16.992Z,7.90
2022-12-17T03:50:16.988Z,9.40
2022-12-17T03:51:16.974Z,8.50
2022-12-17T03:52:16.979Z,10.20
2022-12-17T03:53:16.952Z,8.50
2022-12-17T03:54:16.975Z,9.50
2022-12-17T03:55:16.960Z,8.60
2022-12-17T03:56:16.942Z,9.30
2022-12-17T03:57:16.945Z,10.50
2022-12-17T03:58:16.892Z,10.40
2022-12-17T03:59:16.908Z,10.70
2022-12-17T04:00:16.933Z,12.10
2022-12-17T04:01:16.957Z,8.90
2022-12-17T04:02:16.992Z,11.10
2022-12-17T04:03:16.904Z,8.40
2022-12-17T04:04:16.826Z,10.80
2022-12-17T04:05:20.121Z,9.50
2022-12-17T04:06:16.842Z,7.90
2022-12-17T04:07:16.833Z,10.20
2022-12-17T04:08:17.047Z,9.10
2022-12-17T04:09:16.789Z,10.20
2022-12-17T04:10:16.765Z,9.70
2022-12-17T04:11:16.833Z,10.80
2022-12-17T04:12:16.754Z,7.60
2022-12-17T04:13:16.764Z,13.90
2022-12-17T04:14:16.736Z,9.60
2022-12-17T04:15:16.741Z,8.50
2022-12-17T04:16:16.781Z,11.00
2022-12-17T04:17:16.743Z,10.10
2022-12-17T04:18:16.691Z,9.20
2022-12-17T04:19:16.696Z,11.00
2022-12-17T04:20:16.683Z,8.90
2022-12-17T04:21:16.663Z,12.70
2022-12-17T04:22:16.643Z,9.40
2022-12-17T04:23:16.693Z,10.60
2022-12-17T04:24:16.682Z,8.60
2022-12-17T04:25:16.615Z,10.80
2022-12-17T04:26:16.609Z,10.30
2022-12-17T04:27:16.573Z,9.80
2022-12-17T04:28:16.580Z,12.00
2022-12-17T04:29:16.597Z,14.50
2022-12-17T04:30:16.555Z,10.40
2022-12-17T04:31:16.688Z,9.50
2022-12-17T04:32:16.532Z,9.50
2022-12-17T04:33:16.763Z,10.40
2022-12-17T04:34:16.517Z,11.60
2022-12-17T04:35:16.560Z,14.50
2022-12-17T04:36:16.503Z,11.20
2022-12-17T04:37:16.487Z,15.20
2022-12-17T04:38:16.481Z,11.60
2022-12-17T04:39:16.462Z,11.80
2022-12-17T04:40:16.443Z,12.10
2022-12-17T04:41:16.494Z,10.20
2022-12-17T04:42:16.414Z,14.10
2022-12-17T04:43:16.414Z,14.20
2022-12-17T04:44:16.402Z,18.00
2022-12-17T04:45:16.382Z,13.20
2022-12-17T04:46:16.507Z,12.60
2022-12-17T04:47:16.379Z,16.50
2022-12-17T04:48:16.364Z,13.00
2022-12-17T04:49:16.353Z,12.00
2022-12-17T04:50:16.337Z,15.20
2022-12-17T04:51:16.346Z,14.30
2022-12-17T04:52:16.345Z,14.30
2022-12-17T04:53:16.332Z,14.40
2022-12-17T04:54:16.303Z,11.90
2022-12-17T04:55:16.313Z,12.10
2022-12-17T04:56:16.265Z,13.60
2022-12-17T04:57:16.255Z,14.70
2022-12-17T04:58:16.324Z,15.80
2022-12-17T04:59:16.244Z,13.80
2022-12-17T05:00:16.213Z,14.10
2022-12-17T05:01:16.262Z,14.80
2022-12-17T05:02:16.311Z,11.80
2022-12-17T05:03:16.214Z,17.30
2022-12-17T05:04:16.222Z,18.40
2022-12-17T05:05:16.172Z,17.30
2022-12-17T05:06:16.167Z,12.30
2022-12-17T05:07:16.158Z,18.60
2022-12-17T05:08:16.176Z,13.40
2022-12-17T05:09:16.171Z,12.90
2022-12-17T05:10:16.142Z,12.00
2022-12-17T05:11:16.102Z,12.90
2022-12-17T05:12:16.092Z,13.80
2022-12-17T05:13:16.088Z,13.80
2022-12-17T05:14:16.063Z,15.80
2022-12-17T05:15:16.103Z,14.80
2022-12-17T05:16:16.141Z,14.00
2022-12-17T05:17:16.063Z,14.40
2022-12-17T05:18:16.053Z,17.60
2022-12-17T05:19:16.046Z,14.90
2022-12-17T05:20:16.026Z,14.20
2022-12-17T05:21:16.013Z,15.60
2022-12-17T05:22:15.993Z,10.70
2022-12-17T05:23:16.013Z,14.10
2022-12-17T05:24:15.979Z,14.20
2022-12-17T05:25:15.992Z,15.10
2022-12-17T05:26:15.988Z,15.80
2022-12-17T05:27:15.961Z,15.90
2022-12-17T05:28:15.993Z,16.40
2022-12-17T05:29:16.246Z,15.10
2022-12-17T05:30:15.923Z,15.40
2022-12-17T05:31:15.957Z,13.80
2022-12-17T05:32:15.919Z,16.20
2022-12-17T05:33:15.868Z,13.70
2022-12-17T05:34:15.878Z,15.30
2022-12-17T05:35:15.833Z,14.00
2022-12-17T05:36:15.824Z,14.70
2022-12-17T05:37:15.804Z,13.10
2022-12-17T05:38:15.836Z,13.90
2022-12-17T05:39:15.791Z,17.10
2022-12-17T05:40:15.794Z,15.10
2022-12-17T05:41:15.795Z,14.40
2022-12-17T05:42:15.799Z,12.70
2022-12-17T05:43:15.889Z,14.40
2022-12-17T05:44:15.784Z,13.90
2022-12-17T05:45:15.843Z,14.60
2022-12-17T05:46:15.768Z,13.10
2022-12-17T05:47:15.725Z,14.40
2022-12-17T05:48:15.805Z,15.60
2022-12-17T05:49:15.683Z,17.60
2022-12-17T05:50:15.683Z,14.50
2022-12-17T05:51:15.673Z,17.80
2022-12-17T05:52:15.736Z,14.10
2022-12-17T05:53:15.654Z,18.80
2022-12-17T05:54:15.654Z,16.70
2022-12-17T05:55:15.632Z,18.20
2022-12-17T05:56:15.595Z,17.20
2022-12-17T05:57:15.610Z,18.10
2022-12-17T05:58:15.595Z,15.90
2022-12-17T05:59:15.566Z,18.50
2022-12-17T06:00:15.638Z,16.40
2022-12-17T06:01:15.646Z,17.80
2022-12-17T06:02:15.583Z,20.20
2022-12-17T06:03:15.667Z,19.40
2022-12-17T06:04:15.626Z,18.60
2022-12-17T06:05:15.515Z,16.10
2022-12-17T06:06:15.540Z,18.20
2022-12-17T06:07:15.483Z,16.60
2022-12-17T06:08:15.474Z,21.30
2022-12-17T06:09:15.478Z,18.70
2022-12-17T06:10:15.459Z,20.60
2022-12-17T06:11:15.477Z,16.80
2022-12-17T06:12:15.516Z,21.90
2022-12-17T06:13:15.425Z,19.00
2022-12-17T06:14:15.424Z,17.30
2022-12-17T06:15:15.491Z,16.50
2022-12-17T06:16:15.450Z,19.10
2022-12-17T06:17:15.415Z,18.40
2022-12-17T06:18:16.899Z,18.90
2022-12-17T06:19:15.364Z,20.50
2022-12-17T06:20:15.348Z,17.90
2022-12-17T06:21:15.334Z,19.30
2022-12-17T06:22:15.413Z,19.00
2022-12-17T06:23:15.346Z,21.30
2022-12-17T06:24:15.325Z,21.70
2022-12-17T06:25:15.595Z,20.90
2022-12-17T06:26:15.275Z,22.90
2022-12-17T06:27:15.315Z,24.50
2022-12-17T06:28:15.257Z,21.80
2022-12-17T06:29:15.315Z,20.80
2022-12-17T06:30:18.639Z,22.60
2022-12-17T06:31:15.272Z,27.00
2022-12-17T06:32:15.218Z,24.40
2022-12-17T06:33:15.197Z,26.80
2022-12-17T06:34:15.202Z,25.90
2022-12-17T06:35:15.205Z,24.70
2022-12-17T06:36:21.709Z,32.90
2022-12-17T06:37:16.214Z,33.20
2022-12-17T06:38:15.212Z,25.00
2022-12-17T06:39:15.144Z,24.40
2022-12-17T06:40:15.138Z,24.80
2022-12-17T06:41:15.166Z,24.00
2022-12-17T06:42:15.146Z,23.00
2022-12-17T06:43:15.131Z,28.30
2022-12-17T06:44:15.085Z,37.40
2022-12-17T06:45:15.067Z,27.30
2022-12-17T06:46:15.123Z,39.40
2022-12-17T06:47:15.095Z,25.10
2022-12-17T06:48:15.051Z,25.30
2022-12-17T06:49:15.048Z,38.70
2022-12-17T06:50:15.034Z,32.90
2022-12-17T06:51:15.046Z,27.10
2022-12-17T06:52:15.135Z,74.70
2022-12-17T06:53:15.007Z,47.60
2022-12-17T06:54:15.006Z,43.80
2022-12-17T06:55:14.967Z,25.30
2022-12-17T06:56:14.954Z,30.00
2022-12-17T06:57:14.976Z,38.20
2022-12-17T06:58:14.990Z,24.50
2022-12-17T06:59:14.924Z,23.50
2022-12-17T07:00:14.914Z,24.30
2022-12-17T07:01:15.195Z,21.60
2022-12-17T07:02:15.144Z,22.10
2022-12-17T07:03:15.132Z,23.90
2022-12-17T07:04:14.909Z,26.00
2022-12-17T07:05:14.866Z,20.80
2022-12-17T07:06:14.888Z,23.00
2022-12-17T07:07:14.864Z,28.80
2022-12-17T07:08:14.877Z,28.60
2022-12-17T07:09:14.997Z,21.50
2022-12-17T07:10:14.841Z,21.70
2022-12-17T07:11:14.824Z,18.10
2022-12-17T07:12:14.864Z,22.00
2022-12-17T07:13:14.792Z,23.50
2022-12-17T07:14:14.865Z,26.40
2022-12-17T07:15:14.783Z,21.90
2022-12-17T07:16:14.792Z,24.70
2022-12-17T07:17:14.729Z,28.50
2022-12-17T07:18:15.114Z,25.50
2022-12-17T07:19:14.699Z,24.50
2022-12-17T07:20:14.723Z,30.90
2022-12-17T07:21:14.696Z,25.70
2022-12-17T07:22:14.713Z,24.90
2022-12-17T07:23:14.659Z,24.60
2022-12-17T07:24:14.656Z,31.90
2022-12-17T07:25:14.648Z,27.00
2022-12-17T07:26:14.671Z,30.40
2022-12-17T07:27:14.615Z,29.50
2022-12-17T07:28:14.616Z,26.50
2022-12-17T07:29:14.596Z,23.20
2022-12-17T07:30:15.544Z,23.40
2022-12-17T07:31:14.608Z,20.30
2022-12-17T07:32:14.596Z,23.60
2022-12-17T07:33:14.549Z,48.60
2022-12-17T07:34:14.556Z,48.90
2022-12-17T07:35:14.538Z,23.60
2022-12-17T07:36:14.518Z,22.20
2022-12-17T07:37:20.212Z,24.80
2022-12-17T07:38:15.737Z,23.80
2022-12-17T07:39:14.503Z,20.50
2022-12-17T07:40:14.492Z,24.50
2022-12-17T07:41:14.477Z,22.20
2022-12-17T07:42:14.459Z,21.10
2022-12-17T07:43:14.507Z,21.50
2022-12-17T07:44:14.436Z,20.70
2022-12-17T07:45:14.419Z,19.90
2022-12-17T07:46:14.446Z,24.10
2022-12-17T07:47:14.528Z,39.30
2022-12-17T07:48:14.603Z,31.50
2022-12-17T07:49:14.535Z,18.20
2022-12-17T07:50:14.466Z,24.70
2022-12-17T07:51:14.365Z,34.10
2022-12-17T07:52:14.343Z,23.90
2022-12-17T07:53:14.325Z,22.40
2022-12-17T07:54:14.338Z,22.80
2022-12-17T07:55:18.240Z,29.60
2022-12-17T07:56:14.367Z,46.80
2022-12-17T07:57:14.296Z,28.60
2022-12-17T07:58:14.293Z,27.70
2022-12-17T07:59:14.470Z,25.80
2022-12-17T08:00:14.337Z,36.20
2022-12-17T08:01:14.352Z,23.50
2022-12-17T08:02:14.368Z,28.70
2022-12-17T08:03:14.405Z,26.40
2022-12-17T08:04:14.446Z,36.70
2022-12-17T08:05:15.196Z,29.50
2022-12-17T08:06:14.373Z,27.50
2022-12-17T08:07:14.515Z,23.40
2022-12-17T08:08:15.184Z,25.10
2022-12-17T08:09:14.186Z,21.20
2022-12-17T08:10:14.346Z,24.90
2022-12-17T08:11:14.189Z,22.20
2022-12-17T08:12:14.461Z,20.30
2022-12-17T08:13:14.492Z,27.90
2022-12-17T08:14:14.230Z,23.80
2022-12-17T08:15:14.100Z,20.60
2022-12-17T08:16:15.140Z,26.20
2022-12-17T08:17:14.267Z,20.90
2022-12-17T08:18:14.359Z,26.20
2022-12-17T08:19:14.146Z,20.60
2022-12-17T08:20:14.085Z,28.30
2022-12-17T08:21:14.108Z,23.10
2022-12-17T08:22:14.069Z,32.30
2022-12-17T08:23:14.063Z,31.90
2022-12-17T08:24:14.113Z,26.00
2022-12-17T08:25:14.005Z,33.10
2022-12-17T08:26:13.997Z,32.90
2022-12-17T08:27:14.495Z,37.50
2022-12-17T08:28:41.304Z,29.40
2022-12-17T08:29:14.985Z,28.70
2022-12-17T08:30:14.017Z,22.10
2022-12-17T08:31:14.212Z,23.50
2022-12-17T08:32:13.937Z,30.40
2022-12-17T08:33:13.929Z,20.80
2022-12-17T08:34:13.889Z,23.00
2022-12-17T08:35:13.909Z,18.80
2022-12-17T08:36:14.167Z,24.00
2022-12-17T08:37:13.868Z,21.60
2022-12-17T08:38:14.569Z,23.90
2022-12-17T08:39:13.919Z,21.60
2022-12-17T08:40:13.909Z,20.40
2022-12-17T08:41:13.817Z,22.10
2022-12-17T08:42:13.807Z,22.80
2022-12-17T08:43:14.869Z,21.50
2022-12-17T08:44:13.779Z,21.70
2022-12-17T08:45:13.768Z,21.10
2022-12-17T08:46:13.840Z,19.10
2022-12-17T08:47:13.763Z,22.70
2022-12-17T08:48:13.747Z,21.40
2022-12-17T08:49:13.728Z,20.80
2022-12-17T08:50:13.754Z,24.70
2022-12-17T08:51:13.747Z,30.70
2022-12-17T08:52:13.773Z,25.40
2022-12-17T08:53:13.742Z,23.10
2022-12-17T08:54:13.781Z,24.00
2022-12-17T08:55:13.668Z,23.60
2022-12-17T08:56:13.704Z,23.10
2022-12-17T08:57:26.813Z,22.70
2022-12-17T08:58:14.670Z,21.40
2022-12-17T08:59:13.628Z,20.80
2022-12-17T09:00:13.608Z,22.40
2022-12-17T09:01:13.681Z,25.50
2022-12-17T09:02:13.813Z,24.50
2022-12-17T09:03:13.696Z,30.40
2022-12-17T09:04:13.575Z,26.20
2022-12-17T09:05:13.579Z,26.50
2022-12-17T09:06:13.549Z,25.60
2022-12-17T09:07:13.548Z,21.40
2022-12-17T09:08:13.528Z,23.80
2022-12-17T09:09:13.569Z,25.70
2022-12-17T09:10:13.508Z,27.70
2022-12-17T09:11:13.509Z,25.50
2022-12-17T09:12:13.492Z,22.90
2022-12-17T09:13:13.552Z,24.20
2022-12-17T09:14:13.518Z,24.30
2022-12-17T09:15:13.459Z,24.30
2022-12-17T09:16:13.608Z,33.80
2022-12-17T09:17:13.442Z,21.20
2022-12-17T09:18:13.442Z,26.10
2022-12-17T09:19:13.428Z,24.90
2022-12-17T09:20:13.440Z,24.90
2022-12-17T09:21:13.388Z,22.00
2022-12-17T09:22:13.389Z,23.40
2022-12-17T09:23:13.369Z,26.30
2022-12-17T09:24:13.438Z,25.10
2022-12-17T09:25:13.402Z,25.20
2022-12-17T09:26:13.369Z,23.00
2022-12-17T09:27:13.394Z,25.20
2022-12-17T09:28:13.328Z,26.40
2022-12-17T09:29:13.311Z,22.90
2022-12-17T09:30:13.299Z,26.20
2022-12-17T09:31:13.351Z,23.70
2022-12-17T09:32:13.322Z,25.90
2022-12-17T09:33:13.326Z,26.10
2022-12-17T09:34:13.320Z,23.10
2022-12-17T09:35:13.251Z,23.00
2022-12-17T09:36:13.241Z,22.60
2022-12-17T09:37:13.286Z,23.20
2022-12-17T09:38:13.216Z,26.40
2022-12-17T09:39:13.200Z,25.70
2022-12-17T09:40:13.209Z,25.70
2022-12-17T09:41:13.181Z,28.90
2022-12-17T09:42:13.225Z,28.50
2022-12-17T09:43:13.210Z,25.50
2022-12-17T09:44:13.161Z,24.20
2022-12-17T09:45:13.263Z,21.20
2022-12-17T09:46:13.277Z,27.00
2022-12-17T09:47:13.150Z,23.20
2022-12-17T09:48:13.117Z,25.50
2022-12-17T09:49:13.163Z,25.40
2022-12-17T09:50:13.120Z,23.40
2022-12-17T09:51:13.129Z,23.30
2022-12-17T09:52:13.126Z,23.30
2022-12-17T09:53:13.108Z,21.80
2022-12-17T09:54:13.062Z,25.00
2022-12-17T09:55:14.059Z,22.90
2022-12-17T09:56:13.059Z,28.60
2022-12-17T09:57:13.139Z,26.20
2022-12-17T09:58:13.049Z,25.20
2022-12-17T09:59:13.011Z,29.90
2022-12-17T10:00:13.020Z,28.70
2022-12-17T10:01:13.127Z,26.40
2022-12-17T10:02:13.085Z,24.90
2022-12-17T10:03:13.009Z,29.10
2022-12-17T10:04:12.920Z,31.80
2022-12-17T10:05:13.060Z,29.90
2022-12-17T10:06:15.655Z,23.60
2022-12-17T10:07:14.009Z,30.00
2022-12-17T10:08:12.880Z,25.70
2022-12-17T10:09:13.060Z,28.10
2022-12-17T10:10:12.902Z,25.20
2022-12-17T10:11:12.950Z,30.80
2022-12-17T10:12:12.851Z,24.70
2022-12-17T10:13:12.822Z,24.30
2022-12-17T10:14:12.820Z,23.10
2022-12-17T10:15:12.846Z,25.20
2022-12-17T10:16:12.944Z,25.00
2022-12-17T10:17:12.790Z,24.80
2022-12-17T10:18:12.783Z,24.30
2022-12-17T10:19:12.770Z,19.20
2022-12-17T10:20:12.859Z,18.90
2022-12-17T10:21:12.751Z,22.20
2022-12-17T10:22:12.750Z,23.50
2022-12-17T10:23:12.711Z,22.40
2022-12-17T10:24:18.319Z,24.40
2022-12-17T10:25:13.739Z,24.50
2022-12-17T10:26:12.697Z,24.70
2022-12-17T10:27:12.672Z,28.30
2022-12-17T10:28:12.675Z,24.80
2022-12-17T10:29:12.640Z,26.60
2022-12-17T10:30:12.631Z,22.50
2022-12-17T10:31:12.665Z,28.80
2022-12-17T10:32:12.623Z,24.80
2022-12-17T10:33:13.879Z,25.60
2022-12-17T10:34:12.732Z,23.70
2022-12-17T10:35:12.579Z,25.40
2022-12-17T10:36:12.591Z,23.20
2022-12-17T10:37:12.554Z,23.20
2022-12-17T10:38:12.552Z,21.50
2022-12-17T10:39:12.563Z,24.50
2022-12-17T10:40:12.554Z,25.60
2022-12-17T10:41:12.511Z,25.00
2022-12-17T10:42:12.528Z,24.70
2022-12-17T10:43:12.532Z,24.90
2022-12-17T10:44:12.728Z,24.70
2022-12-17T10:45:12.466Z,22.80
2022-12-17T10:46:12.513Z,25.50
2022-12-17T10:47:12.472Z,29.70
2022-12-17T10:48:12.499Z,25.20
2022-12-17T10:49:12.524Z,38.40
2022-12-17T10:50:12.443Z,30.20
2022-12-17T10:51:12.411Z,31.40
2022-12-17T10:52:12.600Z,26.80
2022-12-17T10:53:12.596Z,27.00
2022-12-17T10:54:12.377Z,31.90
2022-12-17T10:55:12.352Z,26.30
2022-12-17T10:56:12.392Z,23.00
2022-12-17T10:57:12.353Z,32.80
2022-12-17T10:58:12.513Z,32.50
2022-12-17T10:59:12.323Z,28.50
2022-12-17T11:00:12.325Z,27.40
2022-12-17T11:01:12.741Z,30.20
2022-12-17T11:02:12.429Z,27.70
2022-12-17T11:03:12.446Z,31.80
2022-12-17T11:04:12.262Z,25.10
2022-12-17T11:05:12.556Z,24.50
2022-12-17T11:06:12.296Z,26.20
2022-12-17T11:07:12.261Z,29.60
2022-12-17T11:08:13.064Z,26.20
2022-12-17T11:09:12.274Z,25.90
2022-12-17T11:10:13.143Z,27.20
2022-12-17T11:11:12.184Z,32.70
2022-12-17T11:12:12.207Z,25.00
2022-12-17T11:13:12.292Z,26.30
2022-12-17T11:14:12.165Z,30.90
2022-12-17T11:15:12.172Z,38.10
2022-12-17T11:16:12.185Z,27.40
2022-12-17T11:17:12.103Z,26.30
2022-12-17T11:18:12.219Z,27.90
2022-12-17T11:19:12.125Z,23.50
2022-12-17T11:20:12.245Z,26.90
2022-12-17T11:21:12.074Z,23.50
2022-12-17T11:22:12.052Z,28.00
2022-12-17T11:23:12.058Z,30.50
2022-12-17T11:24:12.082Z,29.90
2022-12-17T11:25:12.027Z,27.10
2022-12-17T11:26:12.026Z,24.40
2022-12-17T11:27:12.007Z,22.20
2022-12-17T11:28:12.000Z,22.70
2022-12-17T11:29:12.071Z,24.90
2022-12-17T11:30:12.005Z,27.10
2022-12-17T11:31:12.115Z,25.50
2022-12-17T11:32:11.943Z,25.70
2022-12-17T11:33:11.963Z,26.70
2022-12-17T11:34:11.948Z,28.00
2022-12-17T11:35:11.944Z,27.60
2022-12-17T11:36:11.925Z,26.20
2022-12-17T11:37:11.923Z,26.80
2022-12-17T11:38:11.864Z,26.60
2022-12-17T11:39:11.874Z,30.30
2022-12-17T11:40:11.853Z,28.80
2022-12-17T11:41:11.883Z,26.90
2022-12-17T11:42:11.865Z,26.70
2022-12-17T11:43:11.822Z,29.40
2022-12-17T11:44:11.806Z,24.80
2022-12-17T11:45:11.796Z,24.60
2022-12-17T11:46:11.825Z,25.90
2022-12-17T11:47:11.832Z,24.20
2022-12-17T11:48:12.023Z,26.70
2022-12-17T11:49:11.803Z,27.40
2022-12-17T11:50:11.934Z,26.50
2022-12-17T11:51:11.733Z,30.90
2022-12-17T11:52:11.714Z,26.50
2022-12-17T11:53:11.774Z,27.30
2022-12-17T11:54:11.690Z,29.40
2022-12-17T11:55:11.682Z,31.80
2022-12-17T11:56:11.685Z,28.20
2022-12-17T11:57:11.675Z,29.00
2022-12-17T11:58:13.433Z,25.10
2022-12-17T11:59:11.649Z,27.00
2022-12-17T12:00:11.624Z,25.00
2022-12-17T12:01:11.615Z,27.40
2022-12-17T12:02:11.600Z,25.70
2022-12-17T12:03:11.681Z,27.20
2022-12-17T12:04:11.673Z,27.20
2022-12-17T12:05:11.564Z,30.70
2022-12-17T12:06:11.583Z,28.10
2022-12-17T12:07:11.554Z,27.70
2022-12-17T12:08:11.542Z,24.00
2022-12-17T12:09:11.529Z,28.90
2022-12-17T12:10:11.589Z,26.70
2022-12-17T12:11:11.543Z,27.00
2022-12-17T12:12:11.533Z,30.70
2022-12-17T12:13:11.495Z,32.60
2022-12-17T12:14:11.477Z,30.00
2022-12-17T12:15:11.484Z,26.90
2022-12-17T12:16:11.631Z,24.10
2022-12-17T12:17:11.438Z,27.80
2022-12-17T12:18:11.455Z,24.10
2022-12-17T12:19:11.413Z,29.90
2022-12-17T12:20:11.609Z,29.40
2022-12-17T12:21:11.502Z,25.70
2022-12-17T12:22:11.365Z,22.60
2022-12-17T12:23:11.374Z,28.00
2022-12-17T12:24:11.366Z,25.60
2022-12-17T12:25:11.360Z,27.10
2022-12-17T12:26:11.337Z,27.80
2022-12-17T12:27:11.357Z,32.30
2022-12-17T12:28:11.353Z,27.60
2022-12-17T12:29:11.304Z,23.40
2022-12-17T12:30:11.364Z,25.40
2022-12-17T12:31:11.370Z,31.40
2022-12-17T12:32:11.267Z,26.60
2022-12-17T12:33:11.282Z,28.50
2022-12-17T12:34:11.244Z,27.50
2022-12-17T12:35:11.265Z,26.20
2022-12-17T12:36:12.267Z,25.00
2022-12-17T12:37:11.243Z,26.20
2022-12-17T12:38:11.194Z,27.50
2022-12-17T12:39:11.205Z,36.80
2022-12-17T12:40:11.166Z,38.40
2022-12-17T12:41:11.201Z,28.30
2022-12-17T12:42:11.173Z,31.60
2022-12-17T12:43:11.145Z,25.50
2022-12-17T12:44:11.239Z,26.90
2022-12-17T12:45:11.288Z,29.10
2022-12-17T12:46:11.161Z,26.90
2022-12-17T12:47:11.126Z,32.00
2022-12-17T12:48:11.085Z,32.40
2022-12-17T12:49:11.067Z,26.60
2022-12-17T12:50:11.094Z,27.40
2022-12-17T12:51:11.056Z,29.20
2022-12-17T12:52:11.035Z,33.80
2022-12-17T12:53:11.155Z,29.50
2022-12-17T12:54:11.018Z,27.40
2022-12-17T12:55:11.006Z,31.00